Accueil
METAR-TAF:

METAR-TAF

Aéroports :

Libreville, Gabon

Aéroport international Léon-Mba

latitude: 00-27N, longitude: 009-25E, altitude: 12 m

Observation

Le bulletin a été fait il y a 1 heure et 14 minutes, à 04:00 UTC
Vent 5 kt de sud, variant entre sud/sud-est et sud-ouest
Température 25°C
Humidité 89%
Pression 1012 hPa
Visibilité: 9000 m
Nuages fragmentés à une hauteur de 1600 ft

METAR: FOOL 260400Z 18005KT 150V220 9000 BKN016 25/23 Q1012 NOSIG

Heure: 06:14 (05:14 UTC)


TAF: absent

Observations et prévisions météorologiques de plus de 4000 aéroports (messages METAR et TAF).

Les stations disponibles sont représentées par des disques jaunes et rouges sur la carte.

Passer la souris dessus pour voir le nom de la station.

Cliquer dessus pour voir les observations et prévisions météorologiques.

Pour changer de carte: cliquez sur les boutons verts avec une croix noire pour zoomer, sur le bouton vert avec un tiret pour effectuer un zoom arrière, ou sur les flèches vertes pour les cartes adjacentes.


METAR-TAF: